This is the latest recevied weather packets stored in our database for station/object KM4KBD. If no packets are shown the sender has not sent any weather packets the latest 10 day(s).
| Time | Temp. | Humidity | Pressure | Rain* | Wind** | Luminosity | Snow |
|---|---|---|---|---|---|---|---|
| 1777436545 | 17.22° C | 93% | 1018.5 hPa | 0 mm | - | 0 W/m² | - |
| 1777436241 | 17.22° C | 92% | 1018.4 hPa | 1.78 mm | - | 0 W/m² | - |
| 1777435938 | 17.22° C | 93% | 1018.5 hPa | 1.78 mm | - | 0 W/m² | - |
| 1777435634 | 17.78° C | 89% | 1018 hPa | 1.78 mm | - | 0 W/m² | - |
| 1777435330 | 18.33° C | 89% | 1018.4 hPa | 4.83 mm | - | 0 W/m² | - |
| 1777435029 | 18.89° C | 90% | 1019 hPa | 1.78 mm | - | 0 W/m² | - |
| 1777434726 | 20° C | 92% | 1019.5 hPa | 0 mm | - | 0 W/m² | - |
| 1777434425 | 20° C | 88% | 1019.9 hPa | 0 mm | - | 0 W/m² | - |
| 1777434124 | 20.56° C | 85% | 1019.4 hPa | 0 mm | - | 0 W/m² | - |
| 1777433820 | 20.56° C | 83% | 1019.5 hPa | 0 mm | - | 0 W/m² | - |
| 1777432004 | 20° C | 88% | 1019.5 hPa | 0 mm | - | 0 W/m² | - |
| 1777429876 | 20° C | 86% | 1019.8 hPa | 0 mm | - | 0 W/m² | - |
| 1777428661 | 20° C | 86% | 1020.2 hPa | 0 mm | - | 0 W/m² | - |
| 1777428052 | 20° C | 86% | 1020.4 hPa | 0 mm | - | 0 W/m² | - |
| 1777422885 | 20.56° C | 83% | 1020.5 hPa | 0 mm | - | 0 W/m² | - |
| 1777422581 | 20.56° C | 83% | 1020.3 hPa | 0 mm | - | 0 W/m² | - |
| 1777420456 | 21.67° C | 77% | 1019.3 hPa | 0 mm | - | 13 W/m² | - |
| 1777414087 | 23.89° C | 71% | 1019.3 hPa | 0 mm | - | 108 W/m² | - |
| 1777409236 | 22.78° C | 73% | 1020.7 hPa | 0 mm | - | 175 W/m² | - |
| 1777408629 | 23.33° C | 70% | 1020.8 hPa | 0 mm | - | 143 W/m² | - |
| 1777408325 | 23.89° C | 67% | 1021 hPa | 0 mm | - | 204 W/m² | - |
| 1777406198 | 23.89° C | 74% | 1021.4 hPa | 0 mm | - | 400 W/m² | - |
| 1777404986 | 22.78° C | 77% | 1021.9 hPa | 0 mm | - | 736 W/m² | - |
| 1777404686 | 22.78° C | 75% | 1021.7 hPa | 0 mm | - | 147 W/m² | - |
| 1777404382 | 23.33° C | 76% | 1021.7 hPa | 0 mm | - | 696 W/m² | - |
* Rain latest hour (hover to see other rain measurements)
** Current wind speed in m/s (hover to see current wind gust speed)